sensor_id;sensor_type;location;lat;lon;timestamp;temperature;humidity
68922;DHT22;55959;51.244;5.724;2024-03-07T00:00:46;10.30;63.80
68922;DHT22;55959;51.244;5.724;2024-03-07T00:03:13;10.30;63.90
68922;DHT22;55959;51.244;5.724;2024-03-07T00:05:39;10.30;63.90
68922;DHT22;55959;51.244;5.724;2024-03-07T00:08:05;10.30;63.90
68922;DHT22;55959;51.244;5.724;2024-03-07T00:10:31;10.30;63.90
68922;DHT22;55959;51.244;5.724;2024-03-07T00:12:57;10.20;63.90
68922;DHT22;55959;51.244;5.724;2024-03-07T00:15:23;10.20;64.10
68922;DHT22;55959;51.244;5.724;2024-03-07T00:17:49;10.20;64.10
68922;DHT22;55959;51.244;5.724;2024-03-07T00:20:14;10.10;64.10
68922;DHT22;55959;51.244;5.724;2024-03-07T00:22:41;10.10;64.10
68922;DHT22;55959;51.244;5.724;2024-03-07T00:25:07;10.10;64.10
68922;DHT22;55959;51.244;5.724;2024-03-07T00:27:35;10.10;64.30
68922;DHT22;55959;51.244;5.724;2024-03-07T00:30:03;10.10;64.30
68922;DHT22;55959;51.244;5.724;2024-03-07T00:32:34;10.00;64.30
68922;DHT22;55959;51.244;5.724;2024-03-07T00:35:05;10.00;64.30
68922;DHT22;55959;51.244;5.724;2024-03-07T00:37:31;10.00;64.30
68922;DHT22;55959;51.244;5.724;2024-03-07T00:39:58;10.00;64.30
68922;DHT22;55959;51.244;5.724;2024-03-07T00:42:23;9.90;64.30
68922;DHT22;55959;51.244;5.724;2024-03-07T00:44:49;9.90;64.50
68922;DHT22;55959;51.244;5.724;2024-03-07T00:47:15;9.90;64.50
68922;DHT22;55959;51.244;5.724;2024-03-07T00:49:43;9.90;64.50
68922;DHT22;55959;51.244;5.724;2024-03-07T00:52:11;9.80;64.50
68922;DHT22;55959;51.244;5.724;2024-03-07T00:54:36;9.80;64.70
68922;DHT22;55959;51.244;5.724;2024-03-07T00:57:02;9.80;64.70
68922;DHT22;55959;51.244;5.724;2024-03-07T00:59:29;9.70;64.70
68922;DHT22;55959;51.244;5.724;2024-03-07T01:01:55;9.70;64.70
68922;DHT22;55959;51.244;5.724;2024-03-07T01:04:21;9.70;64.80
68922;DHT22;55959;51.244;5.724;2024-03-07T01:06:47;9.70;64.80
68922;DHT22;55959;51.244;5.724;2024-03-07T01:09:13;9.60;64.80
68922;DHT22;55959;51.244;5.724;2024-03-07T01:11:44;9.60;64.80
68922;DHT22;55959;51.244;5.724;2024-03-07T01:14:13;9.60;65.00
68922;DHT22;55959;51.244;5.724;2024-03-07T01:16:39;9.60;65.00
68922;DHT22;55959;51.244;5.724;2024-03-07T01:19:05;9.60;65.00
68922;DHT22;55959;51.244;5.724;2024-03-07T01:21:33;9.50;65.10
68922;DHT22;55959;51.244;5.724;2024-03-07T01:24:00;9.50;65.20
68922;DHT22;55959;51.244;5.724;2024-03-07T01:26:29;9.50;65.20
68922;DHT22;55959;51.244;5.724;2024-03-07T01:28:56;9.50;66.20
68922;DHT22;55959;51.244;5.724;2024-03-07T01:31:24;9.50;65.50
68922;DHT22;55959;51.244;5.724;2024-03-07T01:33:50;9.40;65.50
68922;DHT22;55959;51.244;5.724;2024-03-07T01:36:16;9.40;65.60
68922;DHT22;55959;51.244;5.724;2024-03-07T01:38:42;9.40;65.80
68922;DHT22;55959;51.244;5.724;2024-03-07T01:41:08;9.40;65.80
68922;DHT22;55959;51.244;5.724;2024-03-07T01:43:34;9.30;65.70
68922;DHT22;55959;51.244;5.724;2024-03-07T01:46:00;9.30;65.80
68922;DHT22;55959;51.244;5.724;2024-03-07T01:48:27;9.30;65.80
68922;DHT22;55959;51.244;5.724;2024-03-07T01:50:55;9.30;65.80
68922;DHT22;55959;51.244;5.724;2024-03-07T01:53:22;9.30;66.00
68922;DHT22;55959;51.244;5.724;2024-03-07T01:55:49;9.20;66.00
68922;DHT22;55959;51.244;5.724;2024-03-07T01:58:19;9.20;66.10
68922;DHT22;55959;51.244;5.724;2024-03-07T02:00:46;9.20;66.20
68922;DHT22;55959;51.244;5.724;2024-03-07T02:03:13;9.20;66.30
68922;DHT22;55959;51.244;5.724;2024-03-07T02:05:40;9.20;66.40
68922;DHT22;55959;51.244;5.724;2024-03-07T02:08:06;9.10;66.40
68922;DHT22;55959;51.244;5.724;2024-03-07T02:10:32;9.10;66.40
68922;DHT22;55959;51.244;5.724;2024-03-07T02:12:58;9.10;66.60
68922;DHT22;55959;51.244;5.724;2024-03-07T02:15:25;9.10;66.60
68922;DHT22;55959;51.244;5.724;2024-03-07T02:17:51;9.10;66.80
68922;DHT22;55959;51.244;5.724;2024-03-07T02:20:16;9.10;66.80
68922;DHT22;55959;51.244;5.724;2024-03-07T02:22:42;9.10;67.00
68922;DHT22;55959;51.244;5.724;2024-03-07T02:25:08;9.00;67.00
68922;DHT22;55959;51.244;5.724;2024-03-07T02:27:38;9.00;67.20
68922;DHT22;55959;51.244;5.724;2024-03-07T02:30:04;9.00;67.40
68922;DHT22;55959;51.244;5.724;2024-03-07T02:32:34;9.00;67.60
68922;DHT22;55959;51.244;5.724;2024-03-07T02:35:00;9.00;67.60
68922;DHT22;55959;51.244;5.724;2024-03-07T02:37:26;8.90;67.60
68922;DHT22;55959;51.244;5.724;2024-03-07T02:39:52;8.90;67.60
68922;DHT22;55959;51.244;5.724;2024-03-07T02:42:17;8.90;67.60
68922;DHT22;55959;51.244;5.724;2024-03-07T02:44:43;8.90;67.80
68922;DHT22;55959;51.244;5.724;2024-03-07T02:47:10;8.90;67.80
68922;DHT22;55959;51.244;5.724;2024-03-07T02:49:35;8.90;67.80
68922;DHT22;55959;51.244;5.724;2024-03-07T02:52:01;8.90;67.90
68922;DHT22;55959;51.244;5.724;2024-03-07T02:54:27;8.80;68.00
68922;DHT22;55959;51.244;5.724;2024-03-07T02:56:53;8.80;68.00
68922;DHT22;55959;51.244;5.724;2024-03-07T02:59:18;8.80;68.00
68922;DHT22;55959;51.244;5.724;2024-03-07T03:01:44;8.80;68.00
68922;DHT22;55959;51.244;5.724;2024-03-07T03:04:10;8.80;68.10
68922;DHT22;55959;51.244;5.724;2024-03-07T03:06:36;8.80;68.20
68922;DHT22;55959;51.244;5.724;2024-03-07T03:09:02;8.80;68.20
68922;DHT22;55959;51.244;5.724;2024-03-07T03:11:30;8.70;68.20
68922;DHT22;55959;51.244;5.724;2024-03-07T03:13:56;8.70;68.30
68922;DHT22;55959;51.244;5.724;2024-03-07T03:16:21;8.70;68.40
68922;DHT22;55959;51.244;5.724;2024-03-07T03:18:47;8.70;68.40
68922;DHT22;55959;51.244;5.724;2024-03-07T03:21:14;8.70;68.40
68922;DHT22;55959;51.244;5.724;2024-03-07T03:23:40;8.70;68.40
68922;DHT22;55959;51.244;5.724;2024-03-07T03:26:06;8.60;68.50
68922;DHT22;55959;51.244;5.724;2024-03-07T03:28:32;8.60;68.60
68922;DHT22;55959;51.244;5.724;2024-03-07T03:30:58;8.60;68.60
68922;DHT22;55959;51.244;5.724;2024-03-07T03:33:23;8.60;68.80
68922;DHT22;55959;51.244;5.724;2024-03-07T03:35:49;8.60;69.00
68922;DHT22;55959;51.244;5.724;2024-03-07T03:38:15;8.60;69.20
68922;DHT22;55959;51.244;5.724;2024-03-07T03:40:41;8.60;69.30
68922;DHT22;55959;51.244;5.724;2024-03-07T03:43:07;8.60;69.40
68922;DHT22;55959;51.244;5.724;2024-03-07T03:45:33;8.50;69.60
68922;DHT22;55959;51.244;5.724;2024-03-07T03:47:59;8.50;69.60
68922;DHT22;55959;51.244;5.724;2024-03-07T03:50:25;8.50;69.80
68922;DHT22;55959;51.244;5.724;2024-03-07T03:52:51;8.50;69.90
68922;DHT22;55959;51.244;5.724;2024-03-07T03:55:17;8.40;69.80
68922;DHT22;55959;51.244;5.724;2024-03-07T03:57:44;8.50;69.80
68922;DHT22;55959;51.244;5.724;2024-03-07T04:00:12;8.40;69.70
68922;DHT22;55959;51.244;5.724;2024-03-07T04:02:40;8.40;69.60
68922;DHT22;55959;51.244;5.724;2024-03-07T04:05:10;8.40;69.80
68922;DHT22;55959;51.244;5.724;2024-03-07T04:07:38;8.40;69.70
68922;DHT22;55959;51.244;5.724;2024-03-07T04:10:04;8.30;69.60
68922;DHT22;55959;51.244;5.724;2024-03-07T04:12:38;8.30;69.70
68922;DHT22;55959;51.244;5.724;2024-03-07T04:15:10;8.30;69.80
68922;DHT22;55959;51.244;5.724;2024-03-07T04:17:37;8.30;69.80
68922;DHT22;55959;51.244;5.724;2024-03-07T04:20:05;8.30;69.80
68922;DHT22;55959;51.244;5.724;2024-03-07T04:22:35;8.30;70.00
68922;DHT22;55959;51.244;5.724;2024-03-07T04:25:05;8.20;70.20
68922;DHT22;55959;51.244;5.724;2024-03-07T04:27:33;8.20;70.30
68922;DHT22;55959;51.244;5.724;2024-03-07T04:30:03;8.20;70.30
68922;DHT22;55959;51.244;5.724;2024-03-07T04:32:30;8.20;70.40
68922;DHT22;55959;51.244;5.724;2024-03-07T04:34:56;8.20;70.40
68922;DHT22;55959;51.244;5.724;2024-03-07T04:37:25;8.20;70.40
68922;DHT22;55959;51.244;5.724;2024-03-07T04:39:53;8.20;70.40
68922;DHT22;55959;51.244;5.724;2024-03-07T04:42:19;8.10;70.30
68922;DHT22;55959;51.244;5.724;2024-03-07T04:44:44;8.10;70.20
68922;DHT22;55959;51.244;5.724;2024-03-07T04:47:10;8.10;70.20
68922;DHT22;55959;51.244;5.724;2024-03-07T04:49:36;8.10;71.00
68922;DHT22;55959;51.244;5.724;2024-03-07T04:52:02;8.10;70.10
68922;DHT22;55959;51.244;5.724;2024-03-07T04:54:29;8.10;70.10
68922;DHT22;55959;51.244;5.724;2024-03-07T04:56:57;8.10;70.20
68922;DHT22;55959;51.244;5.724;2024-03-07T04:59:23;8.00;70.00
68922;DHT22;55959;51.244;5.724;2024-03-07T05:01:49;8.00;70.00
68922;DHT22;55959;51.244;5.724;2024-03-07T05:04:16;8.00;70.00
68922;DHT22;55959;51.244;5.724;2024-03-07T05:06:43;8.00;69.90
68922;DHT22;55959;51.244;5.724;2024-03-07T05:09:10;8.00;69.90
68922;DHT22;55959;51.244;5.724;2024-03-07T05:11:48;7.90;69.80
68922;DHT22;55959;51.244;5.724;2024-03-07T05:14:15;8.00;69.90
68922;DHT22;55959;51.244;5.724;2024-03-07T05:16:42;7.90;69.90
68922;DHT22;55959;51.244;5.724;2024-03-07T05:19:09;7.90;69.80
68922;DHT22;55959;51.244;5.724;2024-03-07T05:21:35;7.90;69.90
68922;DHT22;55959;51.244;5.724;2024-03-07T05:24:09;7.90;69.80
68922;DHT22;55959;51.244;5.724;2024-03-07T05:26:35;7.80;69.80
68922;DHT22;55959;51.244;5.724;2024-03-07T05:29:07;7.80;69.80
68922;DHT22;55959;51.244;5.724;2024-03-07T05:31:40;7.80;69.80
68922;DHT22;55959;51.244;5.724;2024-03-07T05:34:18;7.80;69.80
68922;DHT22;55959;51.244;5.724;2024-03-07T05:36:48;7.80;69.80
68922;DHT22;55959;51.244;5.724;2024-03-07T05:39:16;7.70;69.80
68922;DHT22;55959;51.244;5.724;2024-03-07T05:41:44;7.70;70.00
68922;DHT22;55959;51.244;5.724;2024-03-07T05:44:11;7.70;70.00
68922;DHT22;55959;51.244;5.724;2024-03-07T05:46:41;7.70;70.10
68922;DHT22;55959;51.244;5.724;2024-03-07T05:49:11;7.70;70.10
68922;DHT22;55959;51.244;5.724;2024-03-07T05:51:43;7.60;70.10
68922;DHT22;55959;51.244;5.724;2024-03-07T05:54:11;7.60;70.20
68922;DHT22;55959;51.244;5.724;2024-03-07T05:56:38;7.60;70.20
68922;DHT22;55959;51.244;5.724;2024-03-07T05:59:08;7.60;70.20
68922;DHT22;55959;51.244;5.724;2024-03-07T06:01:37;7.60;70.30
68922;DHT22;55959;51.244;5.724;2024-03-07T06:04:05;7.60;70.40
68922;DHT22;55959;51.244;5.724;2024-03-07T06:06:32;7.60;70.40
68922;DHT22;55959;51.244;5.724;2024-03-07T06:09:01;7.50;70.40
68922;DHT22;55959;51.244;5.724;2024-03-07T06:11:36;7.50;70.40
68922;DHT22;55959;51.244;5.724;2024-03-07T06:14:03;7.50;70.60
68922;DHT22;55959;51.244;5.724;2024-03-07T06:16:33;7.50;70.80
68922;DHT22;55959;51.244;5.724;2024-03-07T06:19:01;7.50;71.00
68922;DHT22;55959;51.244;5.724;2024-03-07T06:21:28;7.50;71.00
68922;DHT22;55959;51.244;5.724;2024-03-07T06:23:57;7.50;71.10
68922;DHT22;55959;51.244;5.724;2024-03-07T06:26:31;7.50;71.20
68922;DHT22;55959;51.244;5.724;2024-03-07T06:29:07;7.50;71.20
68922;DHT22;55959;51.244;5.724;2024-03-07T06:31:39;7.50;71.20
68922;DHT22;55959;51.244;5.724;2024-03-07T06:34:06;7.50;71.20
68922;DHT22;55959;51.244;5.724;2024-03-07T06:36:34;7.50;71.30
68922;DHT22;55959;51.244;5.724;2024-03-07T06:39:00;7.50;71.40
68922;DHT22;55959;51.244;5.724;2024-03-07T06:41:26;7.50;71.50
68922;DHT22;55959;51.244;5.724;2024-03-07T06:43:52;7.50;71.60
68922;DHT22;55959;51.244;5.724;2024-03-07T06:46:20;7.50;71.80
68922;DHT22;55959;51.244;5.724;2024-03-07T06:48:46;7.50;71.80
68922;DHT22;55959;51.244;5.724;2024-03-07T06:51:12;7.50;72.00
68922;DHT22;55959;51.244;5.724;2024-03-07T06:53:38;7.50;72.40
68922;DHT22;55959;51.244;5.724;2024-03-07T06:56:05;7.50;73.00
68922;DHT22;55959;51.244;5.724;2024-03-07T06:58:32;7.40;73.30
68922;DHT22;55959;51.244;5.724;2024-03-07T07:00:58;7.50;73.80
68922;DHT22;55959;51.244;5.724;2024-03-07T07:03:26;7.50;74.20
68922;DHT22;55959;51.244;5.724;2024-03-07T07:05:53;7.50;74.80
68922;DHT22;55959;51.244;5.724;2024-03-07T07:08:22;7.50;75.30
68922;DHT22;55959;51.244;5.724;2024-03-07T07:10:48;7.40;75.30
68922;DHT22;55959;51.244;5.724;2024-03-07T07:13:13;7.50;75.70
68922;DHT22;55959;51.244;5.724;2024-03-07T07:15:39;7.50;75.80
68922;DHT22;55959;51.244;5.724;2024-03-07T07:18:05;7.50;75.90
68922;DHT22;55959;51.244;5.724;2024-03-07T07:20:33;7.50;76.00
68922;DHT22;55959;51.244;5.724;2024-03-07T07:23:02;7.60;76.20
68922;DHT22;55959;51.244;5.724;2024-03-07T07:25:29;7.60;76.20
68922;DHT22;55959;51.244;5.724;2024-03-07T07:27:55;7.60;76.40
68922;DHT22;55959;51.244;5.724;2024-03-07T07:30:23;7.70;76.40
68922;DHT22;55959;51.244;5.724;2024-03-07T07:32:50;7.70;76.40
68922;DHT22;55959;51.244;5.724;2024-03-07T07:35:17;7.70;76.40
68922;DHT22;55959;51.244;5.724;2024-03-07T07:37:45;7.80;76.40
68922;DHT22;55959;51.244;5.724;2024-03-07T07:40:13;7.80;76.40
68922;DHT22;55959;51.244;5.724;2024-03-07T07:42:44;7.80;77.20
68922;DHT22;55959;51.244;5.724;2024-03-07T07:45:12;7.90;76.40
68922;DHT22;55959;51.244;5.724;2024-03-07T07:47:43;7.90;76.20
68922;DHT22;55959;51.244;5.724;2024-03-07T07:50:14;8.00;76.20
68922;DHT22;55959;51.244;5.724;2024-03-07T07:52:45;8.00;76.10
68922;DHT22;55959;51.244;5.724;2024-03-07T07:55:19;8.00;76.00
68922;DHT22;55959;51.244;5.724;2024-03-07T07:57:55;8.10;76.00
68922;DHT22;55959;51.244;5.724;2024-03-07T08:00:24;8.10;76.00
68922;DHT22;55959;51.244;5.724;2024-03-07T08:02:58;8.10;75.90
68922;DHT22;55959;51.244;5.724;2024-03-07T08:05:30;8.20;75.90
68922;DHT22;55959;51.244;5.724;2024-03-07T08:07:59;8.20;75.80
68922;DHT22;55959;51.244;5.724;2024-03-07T08:10:30;8.20;75.80
68922;DHT22;55959;51.244;5.724;2024-03-07T08:13:00;8.20;75.60
68922;DHT22;55959;51.244;5.724;2024-03-07T08:15:29;8.20;75.40
68922;DHT22;55959;51.244;5.724;2024-03-07T08:17:56;8.30;75.20
68922;DHT22;55959;51.244;5.724;2024-03-07T08:20:23;8.30;75.20
68922;DHT22;55959;51.244;5.724;2024-03-07T08:22:52;8.30;75.20
68922;DHT22;55959;51.244;5.724;2024-03-07T08:25:20;8.30;75.20
68922;DHT22;55959;51.244;5.724;2024-03-07T08:27:49;8.30;75.20
68922;DHT22;55959;51.244;5.724;2024-03-07T08:30:16;8.40;75.40
68922;DHT22;55959;51.244;5.724;2024-03-07T08:32:44;8.50;76.20
68922;DHT22;55959;51.244;5.724;2024-03-07T08:35:11;8.50;75.20
68922;DHT22;55959;51.244;5.724;2024-03-07T08:37:42;8.60;75.20
68922;DHT22;55959;51.244;5.724;2024-03-07T08:40:10;8.60;74.80
68922;DHT22;55959;51.244;5.724;2024-03-07T08:42:38;8.60;74.70
68922;DHT22;55959;51.244;5.724;2024-03-07T08:45:06;8.70;74.60
68922;DHT22;55959;51.244;5.724;2024-03-07T08:47:37;8.70;74.30
68922;DHT22;55959;51.244;5.724;2024-03-07T08:50:04;8.80;74.20
68922;DHT22;55959;51.244;5.724;2024-03-07T08:52:36;8.80;73.90
68922;DHT22;55959;51.244;5.724;2024-03-07T08:55:03;8.80;74.00
68922;DHT22;55959;51.244;5.724;2024-03-07T08:57:30;8.80;74.00
68922;DHT22;55959;51.244;5.724;2024-03-07T08:59:56;8.90;73.90
68922;DHT22;55959;51.244;5.724;2024-03-07T09:02:22;8.90;73.70
68922;DHT22;55959;51.244;5.724;2024-03-07T09:04:48;9.00;73.60
68922;DHT22;55959;51.244;5.724;2024-03-07T09:07:14;9.00;73.50
68922;DHT22;55959;51.244;5.724;2024-03-07T09:09:41;9.10;73.50
68922;DHT22;55959;51.244;5.724;2024-03-07T09:12:11;9.10;73.30
68922;DHT22;55959;51.244;5.724;2024-03-07T09:14:37;9.20;73.20
68922;DHT22;55959;51.244;5.724;2024-03-07T09:17:04;9.20;72.60
68922;DHT22;55959;51.244;5.724;2024-03-07T09:19:30;9.30;72.30
68922;DHT22;55959;51.244;5.724;2024-03-07T09:21:56;9.40;72.30
68922;DHT22;55959;51.244;5.724;2024-03-07T09:24:22;9.40;72.00
68922;DHT22;55959;51.244;5.724;2024-03-07T09:26:52;9.40;72.00
68922;DHT22;55959;51.244;5.724;2024-03-07T09:29:19;9.50;72.00
68922;DHT22;55959;51.244;5.724;2024-03-07T09:31:52;9.60;71.60
68922;DHT22;55959;51.244;5.724;2024-03-07T09:34:19;9.60;71.10
68922;DHT22;55959;51.244;5.724;2024-03-07T09:36:47;9.70;70.60
68922;DHT22;55959;51.244;5.724;2024-03-07T09:39:14;9.70;70.20
68922;DHT22;55959;51.244;5.724;2024-03-07T09:41:41;9.80;70.30
68922;DHT22;55959;51.244;5.724;2024-03-07T09:44:14;9.80;69.70
68922;DHT22;55959;51.244;5.724;2024-03-07T09:46:49;9.90;69.50
68922;DHT22;55959;51.244;5.724;2024-03-07T09:49:16;10.00;69.40
68922;DHT22;55959;51.244;5.724;2024-03-07T09:51:43;10.00;68.90
68922;DHT22;55959;51.244;5.724;2024-03-07T09:54:10;10.10;68.40
68922;DHT22;55959;51.244;5.724;2024-03-07T09:56:36;10.10;68.40
68922;DHT22;55959;51.244;5.724;2024-03-07T09:59:04;10.20;68.10
68922;DHT22;55959;51.244;5.724;2024-03-07T10:01:36;10.20;67.90
68922;DHT22;55959;51.244;5.724;2024-03-07T10:04:05;10.30;67.90
68922;DHT22;55959;51.244;5.724;2024-03-07T10:06:46;10.40;67.90
68922;DHT22;55959;51.244;5.724;2024-03-07T10:09:13;10.40;67.50
68922;DHT22;55959;51.244;5.724;2024-03-07T10:11:42;10.40;66.70
68922;DHT22;55959;51.244;5.724;2024-03-07T10:14:09;10.40;66.20
68922;DHT22;55959;51.244;5.724;2024-03-07T10:16:36;10.50;66.50
68922;DHT22;55959;51.244;5.724;2024-03-07T10:19:05;10.50;66.70
68922;DHT22;55959;51.244;5.724;2024-03-07T10:21:33;10.50;66.50
68922;DHT22;55959;51.244;5.724;2024-03-07T10:24:07;10.60;66.10
68922;DHT22;55959;51.244;5.724;2024-03-07T10:26:35;10.60;65.60
68922;DHT22;55959;51.244;5.724;2024-03-07T10:29:01;10.70;65.70
68922;DHT22;55959;51.244;5.724;2024-03-07T10:31:31;10.70;65.10
68922;DHT22;55959;51.244;5.724;2024-03-07T10:33:59;10.70;65.00
68922;DHT22;55959;51.244;5.724;2024-03-07T10:36:30;10.70;64.50
68922;DHT22;55959;51.244;5.724;2024-03-07T10:39:01;10.80;64.50
68922;DHT22;55959;51.244;5.724;2024-03-07T10:41:45;10.80;64.00
68922;DHT22;55959;51.244;5.724;2024-03-07T10:44:24;10.90;63.90
68922;DHT22;55959;51.244;5.724;2024-03-07T10:46:55;10.90;63.60
68922;DHT22;55959;51.244;5.724;2024-03-07T10:49:25;11.00;63.50
68922;DHT22;55959;51.244;5.724;2024-03-07T10:52:10;11.00;62.00
68922;DHT22;55959;51.244;5.724;2024-03-07T10:54:53;11.10;62.20
68922;DHT22;55959;51.244;5.724;2024-03-07T10:57:46;11.10;61.70
68922;DHT22;55959;51.244;5.724;2024-03-07T11:00:21;11.10;60.60
68922;DHT22;55959;51.244;5.724;2024-03-07T11:03:01;11.10;61.10
68922;DHT22;55959;51.244;5.724;2024-03-07T11:05:32;11.20;60.70
68922;DHT22;55959;51.244;5.724;2024-03-07T11:08:00;11.20;60.80
68922;DHT22;55959;51.244;5.724;2024-03-07T11:10:37;11.30;60.40
68922;DHT22;55959;51.244;5.724;2024-03-07T11:13:07;11.30;59.30
68922;DHT22;55959;51.244;5.724;2024-03-07T11:15:43;11.40;59.10
68922;DHT22;55959;51.244;5.724;2024-03-07T11:18:11;11.40;57.80
68922;DHT22;55959;51.244;5.724;2024-03-07T11:20:39;11.50;57.80
68922;DHT22;55959;51.244;5.724;2024-03-07T11:23:25;11.60;57.20
68922;DHT22;55959;51.244;5.724;2024-03-07T11:26:07;11.60;56.50
68922;DHT22;55959;51.244;5.724;2024-03-07T11:28:35;11.70;56.70
68922;DHT22;55959;51.244;5.724;2024-03-07T11:31:13;11.80;55.40
68922;DHT22;55959;51.244;5.724;2024-03-07T11:33:40;11.80;55.60
68922;DHT22;55959;51.244;5.724;2024-03-07T11:36:10;11.90;55.70
68922;DHT22;55959;51.244;5.724;2024-03-07T11:38:48;12.00;55.40
68922;DHT22;55959;51.244;5.724;2024-03-07T11:41:14;12.00;55.40
68922;DHT22;55959;51.244;5.724;2024-03-07T11:43:43;12.10;54.50
68922;DHT22;55959;51.244;5.724;2024-03-07T11:46:09;12.10;54.30
68922;DHT22;55959;51.244;5.724;2024-03-07T11:48:40;12.20;54.50
68922;DHT22;55959;51.244;5.724;2024-03-07T11:51:13;12.20;54.80
68922;DHT22;55959;51.244;5.724;2024-03-07T11:53:40;12.30;54.10
68922;DHT22;55959;51.244;5.724;2024-03-07T11:56:06;12.30;54.10
68922;DHT22;55959;51.244;5.724;2024-03-07T11:58:38;12.20;53.70
68922;DHT22;55959;51.244;5.724;2024-03-07T12:01:08;12.30;53.30
68922;DHT22;55959;51.244;5.724;2024-03-07T12:03:36;12.20;53.00
68922;DHT22;55959;51.244;5.724;2024-03-07T12:06:03;12.20;52.90
68922;DHT22;55959;51.244;5.724;2024-03-07T12:08:29;12.20;53.10
68922;DHT22;55959;51.244;5.724;2024-03-07T12:10:55;12.20;53.30
68922;DHT22;55959;51.244;5.724;2024-03-07T12:13:22;12.20;53.60
68922;DHT22;55959;51.244;5.724;2024-03-07T12:15:50;12.20;53.20
68922;DHT22;55959;51.244;5.724;2024-03-07T12:18:21;12.30;52.90
68922;DHT22;55959;51.244;5.724;2024-03-07T12:20:48;12.20;53.00
68922;DHT22;55959;51.244;5.724;2024-03-07T12:23:21;12.30;52.80
68922;DHT22;55959;51.244;5.724;2024-03-07T12:25:59;12.30;52.90
68922;DHT22;55959;51.244;5.724;2024-03-07T12:28:29;12.30;53.10
68922;DHT22;55959;51.244;5.724;2024-03-07T12:30:59;12.40;53.20
68922;DHT22;55959;51.244;5.724;2024-03-07T12:33:29;12.40;53.00
68922;DHT22;55959;51.244;5.724;2024-03-07T12:35:56;12.40;52.40
68922;DHT22;55959;51.244;5.724;2024-03-07T12:38:31;12.50;53.00
68922;DHT22;55959;51.244;5.724;2024-03-07T12:41:08;12.60;51.50
68922;DHT22;55959;51.244;5.724;2024-03-07T12:43:39;12.60;51.80
68922;DHT22;55959;51.244;5.724;2024-03-07T12:46:09;12.60;51.90
68922;DHT22;55959;51.244;5.724;2024-03-07T12:48:37;12.70;52.30
68922;DHT22;55959;51.244;5.724;2024-03-07T12:51:06;12.70;51.80
68922;DHT22;55959;51.244;5.724;2024-03-07T12:53:31;12.80;51.60
68922;DHT22;55959;51.244;5.724;2024-03-07T12:56:00;12.80;51.90
68922;DHT22;55959;51.244;5.724;2024-03-07T12:58:26;12.80;51.80
68922;DHT22;55959;51.244;5.724;2024-03-07T13:00:55;12.80;51.70
68922;DHT22;55959;51.244;5.724;2024-03-07T13:03:21;12.90;52.20
68922;DHT22;55959;51.244;5.724;2024-03-07T13:05:47;12.90;52.20
68922;DHT22;55959;51.244;5.724;2024-03-07T13:08:13;13.00;52.20
68922;DHT22;55959;51.244;5.724;2024-03-07T13:10:40;13.00;52.40
68922;DHT22;55959;51.244;5.724;2024-03-07T13:13:07;13.10;52.50
68922;DHT22;55959;51.244;5.724;2024-03-07T13:15:38;13.20;52.30
68922;DHT22;55959;51.244;5.724;2024-03-07T13:18:05;13.30;52.00
68922;DHT22;55959;51.244;5.724;2024-03-07T13:20:32;13.30;52.10
68922;DHT22;55959;51.244;5.724;2024-03-07T13:22:58;13.40;51.40
68922;DHT22;55959;51.244;5.724;2024-03-07T13:25:26;13.40;51.20
68922;DHT22;55959;51.244;5.724;2024-03-07T13:27:57;13.50;51.60
68922;DHT22;55959;51.244;5.724;2024-03-07T13:30:27;13.50;51.10
68922;DHT22;55959;51.244;5.724;2024-03-07T13:32:58;13.70;51.30
68922;DHT22;55959;51.244;5.724;2024-03-07T13:35:25;13.70;50.50
68922;DHT22;55959;51.244;5.724;2024-03-07T13:37:52;13.70;50.20
68922;DHT22;55959;51.244;5.724;2024-03-07T13:40:22;13.80;50.70
68922;DHT22;55959;51.244;5.724;2024-03-07T13:42:51;13.80;50.90
68922;DHT22;55959;51.244;5.724;2024-03-07T13:45:25;13.90;50.80
68922;DHT22;55959;51.244;5.724;2024-03-07T13:47:57;13.90;50.50
68922;DHT22;55959;51.244;5.724;2024-03-07T13:50:28;13.90;49.90
68922;DHT22;55959;51.244;5.724;2024-03-07T13:52:55;13.90;49.90
68922;DHT22;55959;51.244;5.724;2024-03-07T14:05:04;13.90;50.00
68922;DHT22;55959;51.244;5.724;2024-03-07T14:33:01;14.20;50.00
68922;DHT22;55959;51.244;5.724;2024-03-07T14:36:11;14.20;49.90
68922;DHT22;55959;51.244;5.724;2024-03-07T14:38:57;14.30;50.30
68922;DHT22;55959;51.244;5.724;2024-03-07T14:44:18;14.30;49.70
68922;DHT22;55959;51.244;5.724;2024-03-07T14:46:47;14.30;49.90
68922;DHT22;55959;51.244;5.724;2024-03-07T14:49:17;14.30;50.30
68922;DHT22;55959;51.244;5.724;2024-03-07T14:51:44;14.30;50.20
68922;DHT22;55959;51.244;5.724;2024-03-07T14:54:11;14.30;50.10
68922;DHT22;55959;51.244;5.724;2024-03-07T14:56:37;14.40;49.70
68922;DHT22;55959;51.244;5.724;2024-03-07T14:59:03;14.30;49.50
68922;DHT22;55959;51.244;5.724;2024-03-07T15:01:31;14.30;49.80
68922;DHT22;55959;51.244;5.724;2024-03-07T15:04:00;14.30;50.20
68922;DHT22;55959;51.244;5.724;2024-03-07T15:06:29;14.30;50.50
68922;DHT22;55959;51.244;5.724;2024-03-07T15:08:57;14.20;50.80
68922;DHT22;55959;51.244;5.724;2024-03-07T15:11:45;14.20;51.20
68922;DHT22;55959;51.244;5.724;2024-03-07T15:14:11;14.10;51.10
68922;DHT22;55959;51.244;5.724;2024-03-07T15:16:38;14.00;51.40
68922;DHT22;55959;51.244;5.724;2024-03-07T15:19:05;14.00;51.70
68922;DHT22;55959;51.244;5.724;2024-03-07T15:21:32;13.90;51.90
68922;DHT22;55959;51.244;5.724;2024-03-07T15:23:59;13.90;52.00
68922;DHT22;55959;51.244;5.724;2024-03-07T15:26:28;13.90;52.10
68922;DHT22;55959;51.244;5.724;2024-03-07T15:28:57;13.80;52.20
68922;DHT22;55959;51.244;5.724;2024-03-07T15:31:24;13.80;52.20
68922;DHT22;55959;51.244;5.724;2024-03-07T15:33:50;13.70;52.40
68922;DHT22;55959;51.244;5.724;2024-03-07T15:36:20;13.70;52.60
68922;DHT22;55959;51.244;5.724;2024-03-07T15:38:48;13.70;52.90
68922;DHT22;55959;51.244;5.724;2024-03-07T15:41:14;13.60;53.10
68922;DHT22;55959;51.244;5.724;2024-03-07T15:43:41;13.60;53.30
68922;DHT22;55959;51.244;5.724;2024-03-07T15:46:08;13.60;53.60
68922;DHT22;55959;51.244;5.724;2024-03-07T15:48:37;13.50;53.70
68922;DHT22;55959;51.244;5.724;2024-03-07T15:51:04;13.50;53.80
68922;DHT22;55959;51.244;5.724;2024-03-07T15:53:30;13.40;53.90
68922;DHT22;55959;51.244;5.724;2024-03-07T15:55:59;13.40;54.20
68922;DHT22;55959;51.244;5.724;2024-03-07T15:58:25;13.40;54.10
68922;DHT22;55959;51.244;5.724;2024-03-07T16:00:51;13.30;54.00
68922;DHT22;55959;51.244;5.724;2024-03-07T16:03:17;13.30;54.10
68922;DHT22;55959;51.244;5.724;2024-03-07T16:05:43;13.30;54.20
68922;DHT22;55959;51.244;5.724;2024-03-07T16:08:11;13.30;54.30
68922;DHT22;55959;51.244;5.724;2024-03-07T16:10:40;13.20;54.40
68922;DHT22;55959;51.244;5.724;2024-03-07T16:13:10;13.20;54.60
68922;DHT22;55959;51.244;5.724;2024-03-07T16:15:44;13.20;54.70
68922;DHT22;55959;51.244;5.724;2024-03-07T16:18:11;13.20;54.80
68922;DHT22;55959;51.244;5.724;2024-03-07T16:20:38;13.20;54.80
68922;DHT22;55959;51.244;5.724;2024-03-07T16:23:04;13.20;54.90
68922;DHT22;55959;51.244;5.724;2024-03-07T16:25:31;13.20;55.00